Time;durP1;ratioP1;P1;durP2;ratioP2;P2;SDS_P1;SDS_P2;PMS_P1;PMS_P2;Temp;Humidity;BMP_temperature;BMP_pressure;BME280_temperature;BME280_humidity;BME280_pressure;Samples;Min_cycle;Max_cycle;Signal;HPM_P1;HPM_P2
2021/01/26 00:05:28;;;;;;;27.4;21.8;;;;;;;-0.8;83.23145;97687.2;;;;
2021/01/26 00:15:26;;;;;;;29.9;20.9;;;;;;;-0.89;83.28027;97701.94;;;;
2021/01/26 00:25:24;;;;;;;39.7;29.5;;;;;;;-0.9;83.27832;97710.95;;;;
2021/01/26 00:35:21;;;;;;;31.5;23.3;;;;;;;-0.94;83.25977;97713.3;;;;
2021/01/26 00:45:19;;;;;;;35.8;21.5;;;;;;;-1.05;84.23438;97727.5;;;;
2021/01/26 00:55:17;;;;;;;36.8;21.9;;;;;;;-1.16;84.97949;97734.56;;;;
2021/01/26 01:05:14;;;;;;;32;22.3;;;;;;;-1.26;85.60645;97745.05;;;;
2021/01/26 01:15:12;;;;;;;33.2;20.4;;;;;;;-1.26;85.97852;97744.25;;;;
2021/01/26 01:25:09;;;;;;;28.9;19.8;;;;;;;-1.19;85.99316;97752.77;;;;
2021/01/26 01:35:07;;;;;;;26.6;17;;;;;;;-1.23;86.19141;97755.13;;;;
2021/01/26 01:45:04;;;;;;;27;15.6;;;;;;;-1.25;86.10059;97754.56;;;;
2021/01/26 01:55:02;;;;;;;28.7;16.7;;;;;;;-1.38;86.27246;97736.48;;;;
2021/01/26 02:05:00;;;;;;;22.9;15.3;;;;;;;-1.37;86.58008;97753.94;;;;
2021/01/26 02:14:58;;;;;;;21.9;17;;;;;;;-1.3;86.46387;97757.17;;;;
2021/01/26 02:25:21;;;;;;;27.6;17.3;;;;;;;-1.24;86.31055;97755.36;;;;
2021/01/26 02:35:02;;;;;;;31.3;24.5;;;;;;;-1.25;86.43945;97757.2;;;;
2021/01/26 02:44:50;;;;;;;32.6;24.3;;;;;;;-1.19;86.17871;97763.34;;;;
2021/01/26 02:54:48;;;;;;;28.3;22.5;;;;;;;-1.24;86.43066;97755.36;;;;
2021/01/26 03:04:45;;;;;;;24.5;21.3;;;;;;;-1.22;86.00879;97756.72;;;;
2021/01/26 03:14:43;;;;;;;30.6;23.8;;;;;;;-1.46;86.21191;97779.23;;;;
2021/01/26 03:24:40;;;;;;;28.6;22.4;;;;;;;-1.63;86.14453;97792.52;;;;
2021/01/26 03:34:38;;;;;;;33.2;23.6;;;;;;;-1.69;86.38379;97795.36;;;;
2021/01/26 03:44:36;;;;;;;33.7;24.4;;;;;;;-1.62;86.10254;97804.69;;;;
2021/01/26 03:54:33;;;;;;;38.1;31.3;;;;;;;-1.7;85.76758;97801.71;;;;
2021/01/26 04:04:31;;;;;;;29.4;24;;;;;;;-1.7;86.20703;97802.48;;;;
2021/01/26 04:14:28;;;;;;;31.5;19.7;;;;;;;-1.53;86.59082;97808.47;;;;
2021/01/26 04:24:26;;;;;;;40.6;23.6;;;;;;;-1.44;86.86133;97811.48;;;;
2021/01/26 04:34:23;;;;;;;33.3;24.6;;;;;;;-1.41;87.40039;97826.03;;;;
2021/01/26 04:44:21;;;;;;;30.5;19.3;;;;;;;-1.38;87.69434;97828.98;;;;
2021/01/26 04:54:19;;;;;;;31.2;22.7;;;;;;;-1.34;87.57031;97842.49;;;;
2021/01/26 05:04:16;;;;;;;27.8;18.6;;;;;;;-1.31;87.6416;97850.72;;;;
2021/01/26 05:14:14;;;;;;;34.2;21.5;;;;;;;-1.25;87.45703;97854.23;;;;
2021/01/26 05:24:11;;;;;;;25;18.8;;;;;;;-1.3;87.28418;97865.54;;;;
2021/01/26 05:34:09;;;;;;;30.3;23.1;;;;;;;-1.34;87.06738;97863.63;;;;
2021/01/26 05:44:07;;;;;;;25.3;20.8;;;;;;;-1.22;86.47949;97891.54;;;;
2021/01/26 05:54:05;;;;;;;23.7;16.6;;;;;;;-1.27;85.15527;97893.31;;;;
2021/01/26 06:04:11;;;;;;;26.9;19.6;;;;;;;-1.32;86.0752;97909.13;;;;
2021/01/26 06:14:00;;;;;;;28.7;18.8;;;;;;;-1.44;87.00293;97914.54;;;;
2021/01/26 06:23:57;;;;;;;27.9;18;;;;;;;-1.58;87.9248;97926.52;;;;
2021/01/26 06:34:01;;;;;;;25.4;18.8;;;;;;;-1.62;88.01563;97936.78;;;;
2021/01/26 06:44:08;;;;;;;25.9;21.2;;;;;;;-1.54;87.85547;97943.48;;;;
2021/01/26 06:53:59;;;;;;;30;22.7;;;;;;;-1.52;87.29297;97952.75;;;;
2021/01/26 07:04:24;;;;;;;30.1;22;;;;;;;-1.4;85.99512;97955.29;;;;
2021/01/26 07:13:46;;;;;;;27.8;20.3;;;;;;;-1.37;85.45313;97957.44;;;;
2021/01/26 07:23:43;;;;;;;18.5;16.2;;;;;;;-1.2;85.85938;97971.38;;;;
2021/01/26 07:33:41;;;;;;;27.6;19.4;;;;;;;-1.36;86.69141;97980.19;;;;
2021/01/26 07:43:39;;;;;;;26.6;17;;;;;;;-1.17;85.82324;97994.67;;;;
2021/01/26 07:53:36;;;;;;;31.2;22;;;;;;;-0.9;84.57324;97989.42;;;;
2021/01/26 08:03:34;;;;;;;34.5;19.5;;;;;;;-0.67;83.94824;97996.29;;;;
2021/01/26 08:13:32;;;;;;;26.8;19.7;;;;;;;-0.73;83.16895;97992;;;;
2021/01/26 08:23:30;;;;;;;28.6;20.5;;;;;;;-0.52;82.54102;97994.57;;;;
2021/01/26 08:33:27;;;;;;;31.6;23.3;;;;;;;-0.37;82.30566;98016.94;;;;
2021/01/26 08:43:25;;;;;;;29.2;18.7;;;;;;;-0.2;81.30664;98021.07;;;;
2021/01/26 08:53:23;;;;;;;22.3;18;;;;;;;-0.29;79.72852;98021.79;;;;
2021/01/26 09:03:21;;;;;;;39.8;19.5;;;;;;;0.05;80.11035;98032.92;;;;
2021/01/26 09:13:19;;;;;;;27.5;22.4;;;;;;;-0.33;82.81934;98050.61;;;;
2021/01/26 09:23:16;;;;;;;33.8;22.8;;;;;;;-0.26;84.56543;98066.3;;;;
2021/01/26 09:33:14;;;;;;;31.9;20.9;;;;;;;-0.4;82.55469;98071.19;;;;
2021/01/26 09:43:12;;;;;;;26;21.5;;;;;;;-0.1;80.74121;98065.38;;;;
2021/01/26 09:53:10;;;;;;;28.3;20.9;;;;;;;0.21;78.41309;98056.63;;;;
2021/01/26 10:03:08;;;;;;;29.6;21.9;;;;;;;0.32;78.12402;98081.35;;;;
2021/01/26 10:13:06;;;;;;;21.8;17.4;;;;;;;0.51;77.83008;98087.88;;;;
2021/01/26 10:23:03;;;;;;;32.4;19.5;;;;;;;0.21;77.96191;98091.08;;;;
2021/01/26 10:33:01;;;;;;;23.9;18;;;;;;;-0.13;78.17578;98093.16;;;;
2021/01/26 10:42:59;;;;;;;26;20.4;;;;;;;0.31;78.42188;98087.73;;;;
2021/01/26 10:52:57;;;;;;;22.6;17.8;;;;;;;0.44;79.73242;98097.89;;;;
2021/01/26 11:02:55;;;;;;;28;18.4;;;;;;;0.44;79.37012;98100.55;;;;
2021/01/26 11:12:53;;;;;;;22.1;16;;;;;;;0.61;76.83398;98101.2;;;;
2021/01/26 11:22:51;;;;;;;25.2;17.7;;;;;;;0.59;77.25879;98097.2;;;;
2021/01/26 11:32:49;;;;;;;20;14;;;;;;;0.61;75.95215;98077.33;;;;
2021/01/26 11:42:47;;;;;;;15.4;12.8;;;;;;;0.21;79.38184;98092.95;;;;
2021/01/26 11:52:44;;;;;;;18.5;15.8;;;;;;;0.2;80.5459;98083.39;;;;
2021/01/26 12:02:42;;;;;;;21.3;12.3;;;;;;;0.25;80.52344;98075.47;;;;
2021/01/26 12:12:40;;;;;;;25.5;15.9;;;;;;;0.84;79.11426;98081.44;;;;
2021/01/26 12:22:39;;;;;;;19.5;11.6;;;;;;;0.83;74.78906;98071.9;;;;
2021/01/26 12:32:36;;;;;;;15.7;11.9;;;;;;;0.62;75.58984;98091.39;;;;
2021/01/26 12:42:34;;;;;;;21.3;15.2;;;;;;;0.85;75.61914;98086.49;;;;
2021/01/26 12:52:32;;;;;;;18.9;14.6;;;;;;;0.63;77.7627;98085.02;;;;
2021/01/26 13:02:30;;;;;;;27.3;19.3;;;;;;;0.25;81.27148;98089.52;;;;
2021/01/26 13:12:28;;;;;;;19.5;15.7;;;;;;;-0.18;83.11035;98092.33;;;;
2021/01/26 13:22:25;;;;;;;26.5;18.5;;;;;;;0;83.30078;98108.64;;;;
2021/01/26 13:32:23;;;;;;;26.8;16.5;;;;;;;-0.15;80.80078;98127.06;;;;
2021/01/26 13:42:21;;;;;;;23.5;15.8;;;;;;;-0.3;79.28711;98123.44;;;;
2021/01/26 13:52:20;;;;;;;26.4;15.7;;;;;;;-0.22;79.56738;98115.86;;;;
2021/01/26 14:02:17;;;;;;;20;14.8;;;;;;;-0.58;79.59766;98116.51;;;;
2021/01/26 14:12:14;;;;;;;30.8;19.7;;;;;;;-0.7;80.54199;98119.3;;;;
2021/01/26 14:22:14;;;;;;;27.6;18.1;;;;;;;-0.74;80.91797;98117.38;;;;
2021/01/26 14:32:11;;;;;;;29.3;20.6;;;;;;;-0.88;80.64063;98111.66;;;;
2021/01/26 14:42:07;;;;;;;32.4;20.6;;;;;;;-1.12;81.10938;98105.8;;;;
2021/01/26 14:52:05;;;;;;;31.7;23;;;;;;;-1.38;81.92578;98111.75;;;;
2021/01/26 15:02:03;;;;;;;39.5;22.1;;;;;;;-1.46;82.40332;98130.69;;;;
2021/01/26 15:12:00;;;;;;;27.1;18.9;;;;;;;-1.39;82.64551;98135.8;;;;
2021/01/26 15:21:58;;;;;;;24.7;15.9;;;;;;;-1.39;82.16309;98156.95;;;;
2021/01/26 15:31:56;;;;;;;44.4;30.2;;;;;;;-1.28;82.02148;98156.84;;;;
2021/01/26 15:41:53;;;;;;;35.3;25.5;;;;;;;-1.17;81.7041;98177.09;;;;
2021/01/26 15:51:52;;;;;;;30.2;21.8;;;;;;;-1.08;81.08398;98170.34;;;;
2021/01/26 16:01:48;;;;;;;34.1;24.3;;;;;;;-0.98;81.04785;98179.48;;;;
2021/01/26 16:11:46;;;;;;;24.8;20.6;;;;;;;-0.87;80.09277;98187.33;;;;
2021/01/26 16:21:43;;;;;;;34.8;23.7;;;;;;;-0.97;81.53223;98191.67;;;;
2021/01/26 16:31:41;;;;;;;37.8;22.1;;;;;;;-1.23;82.43555;98196.58;;;;
2021/01/26 16:41:39;;;;;;;35.9;25.5;;;;;;;-1.54;83.65625;98181.28;;;;
2021/01/26 16:51:36;;;;;;;47.7;35.2;;;;;;;-1.77;84.55273;98187.48;;;;
2021/01/26 17:01:34;;;;;;;53.3;31.7;;;;;;;-1.92;85.46191;98195.16;;;;
2021/01/26 17:11:31;;;;;;;38.3;28;;;;;;;-1.95;85.40039;98189.55;;;;
2021/01/26 17:21:29;;;;;;;49.6;32;;;;;;;-1.88;85.21777;98203.41;;;;
2021/01/26 17:31:26;;;;;;;44.1;32.3;;;;;;;-1.82;84.66211;98210.38;;;;
2021/01/26 17:41:24;;;;;;;45.2;30.4;;;;;;;-1.81;84.22656;98206.7;;;;
2021/01/26 17:51:21;;;;;;;66;41.1;;;;;;;-1.74;83.8252;98210;;;;
2021/01/26 18:01:19;;;;;;;38.9;25.5;;;;;;;-1.69;83.43066;98210.88;;;;
2021/01/26 18:11:19;;;;;;;30.5;27.2;;;;;;;-1.62;82.85352;98222.1;;;;
2021/01/26 18:21:14;;;;;;;37;27.1;;;;;;;-1.58;81.98535;98223.23;;;;
2021/01/26 18:31:11;;;;;;;35.6;25.5;;;;;;;-1.53;81.6123;98235.73;;;;
2021/01/26 18:41:11;;;;;;;43.6;31.3;;;;;;;-1.44;80.24902;98236.94;;;;
2021/01/26 18:51:07;;;;;;;41.6;27.7;;;;;;;-1.38;79.78906;98241.27;;;;
2021/01/26 19:01:04;;;;;;;41.6;27;;;;;;;-1.33;78.18555;98246.64;;;;
2021/01/26 19:11:02;;;;;;;29.5;22.1;;;;;;;-1.31;76.72949;98249.84;;;;
2021/01/26 19:21:00;;;;;;;33.4;18.5;;;;;;;-1.28;75.27637;98246.72;;;;
2021/01/26 19:30:57;;;;;;;25.6;18.1;;;;;;;-1.25;74.27051;98258.67;;;;
2021/01/26 19:40:55;;;;;;;25.8;18.3;;;;;;;-1.22;74.42969;98263.48;;;;
2021/01/26 19:50:53;;;;;;;29.9;16;;;;;;;-1.21;72.87207;98270.34;;;;
2021/01/26 20:00:50;;;;;;;33.4;21.4;;;;;;;-1.21;72.04785;98271.16;;;;
2021/01/26 20:10:48;;;;;;;53.2;34.7;;;;;;;-1.27;72.2793;98277.41;;;;
2021/01/26 20:20:45;;;;;;;49.3;32.1;;;;;;;-1.4;72.28027;98288.28;;;;
2021/01/26 20:30:43;;;;;;;39.4;30.3;;;;;;;-1.55;72.95508;98285.36;;;;
2021/01/26 20:40:41;;;;;;;70.3;47.1;;;;;;;-1.68;73.07617;98283.01;;;;
2021/01/26 20:50:38;;;;;;;59.3;37.7;;;;;;;-1.93;73.87695;98298.36;;;;
2021/01/26 21:00:36;;;;;;;68.6;46.3;;;;;;;-2.02;74.8584;98299.78;;;;
2021/01/26 21:10:34;;;;;;;58.7;36.3;;;;;;;-1.96;75.09961;98309.39;;;;
2021/01/26 21:20:31;;;;;;;44.6;27.1;;;;;;;-1.98;75.39258;98308.84;;;;
2021/01/26 21:30:28;;;;;;;42.5;29;;;;;;;-2.15;75.85742;98312.19;;;;
2021/01/26 21:40:26;;;;;;;67.2;44.8;;;;;;;-2.23;76.41016;98315.2;;;;
2021/01/26 21:50:23;;;;;;;36.4;26.4;;;;;;;-2.16;76.96191;98323.8;;;;
2021/01/26 22:00:21;;;;;;;34.9;23.7;;;;;;;-1.93;76.5293;98319.48;;;;
2021/01/26 22:10:18;;;;;;;29.5;18.3;;;;;;;-1.86;76.13672;98322.8;;;;
2021/01/26 22:20:18;;;;;;;43.7;26.2;;;;;;;-1.84;76.19629;98324.16;;;;
2021/01/26 22:30:14;;;;;;;40.2;23.5;;;;;;;-1.77;76.14355;98311.63;;;;
2021/01/26 22:40:20;;;;;;;33.6;23.5;;;;;;;-1.8;76.20313;98332.42;;;;
2021/01/26 22:50:14;;;;;;;37.9;20.3;;;;;;;-1.73;75.88672;98336.54;;;;
2021/01/26 23:00:06;;;;;;;33.1;24.3;;;;;;;-1.71;76.19824;98329.2;;;;
2021/01/26 23:10:04;;;;;;;29.4;24.9;;;;;;;-1.65;76.06543;98335.38;;;;
2021/01/26 23:20:01;;;;;;;44.3;30;;;;;;;-1.63;76.03711;98326.16;;;;
2021/01/26 23:29:59;;;;;;;32.2;22.8;;;;;;;-1.73;76.11719;98319.88;;;;
2021/01/26 23:39:56;;;;;;;34.3;20.9;;;;;;;-1.97;76.63281;98311.23;;;;
2021/01/26 23:49:54;;;;;;;28.4;20.8;;;;;;;-2.28;78.09766;98316.91;;;;
2021/01/26 23:59:51;;;;;;;27.8;19.6;;;;;;;-2.3;78.5332;98325.08;;;;
